sensor_id;sensor_type;location;lat;lon;timestamp;P1;durP1;ratioP1;P2;durP2;ratioP2
78443;SDS011;67739;52.986;8.894;2023-03-04T00:02:08;9.82;;;1.20;;
78443;SDS011;67739;52.986;8.894;2023-03-04T00:04:34;8.88;;;1.13;;
78443;SDS011;67739;52.986;8.894;2023-03-04T00:06:59;7.68;;;0.80;;
78443;SDS011;67739;52.986;8.894;2023-03-04T00:09:24;8.98;;;1.00;;
78443;SDS011;67739;52.986;8.894;2023-03-04T00:11:50;9.95;;;1.15;;
78443;SDS011;67739;52.986;8.894;2023-03-04T00:14:15;20.05;;;1.50;;
78443;SDS011;67739;52.986;8.894;2023-03-04T00:16:40;15.27;;;1.23;;
78443;SDS011;67739;52.986;8.894;2023-03-04T00:19:06;6.75;;;0.85;;
78443;SDS011;67739;52.986;8.894;2023-03-04T00:21:31;13.05;;;1.00;;
78443;SDS011;67739;52.986;8.894;2023-03-04T00:23:56;12.55;;;1.25;;
78443;SDS011;67739;52.986;8.894;2023-03-04T00:26:22;10.95;;;1.45;;
78443;SDS011;67739;52.986;8.894;2023-03-04T00:28:47;13.20;;;0.73;;
78443;SDS011;67739;52.986;8.894;2023-03-04T00:31:12;11.38;;;1.85;;
78443;SDS011;67739;52.986;8.894;2023-03-04T00:33:38;9.40;;;1.17;;
78443;SDS011;67739;52.986;8.894;2023-03-04T00:36:04;11.80;;;2.35;;
78443;SDS011;67739;52.986;8.894;2023-03-04T00:38:30;11.38;;;1.20;;
78443;SDS011;67739;52.986;8.894;2023-03-04T00:40:55;10.20;;;1.85;;
78443;SDS011;67739;52.986;8.894;2023-03-04T00:43:20;10.23;;;1.08;;
78443;SDS011;67739;52.986;8.894;2023-03-04T00:45:46;8.88;;;0.85;;
78443;SDS011;67739;52.986;8.894;2023-03-04T00:48:11;12.73;;;2.10;;
78443;SDS011;67739;52.986;8.894;2023-03-04T00:50:36;4.45;;;0.68;;
78443;SDS011;67739;52.986;8.894;2023-03-04T00:53:02;6.18;;;0.63;;
78443;SDS011;67739;52.986;8.894;2023-03-04T00:55:28;6.38;;;0.73;;
78443;SDS011;67739;52.986;8.894;2023-03-04T00:57:53;10.88;;;0.90;;
78443;SDS011;67739;52.986;8.894;2023-03-04T01:00:19;10.05;;;1.65;;
78443;SDS011;67739;52.986;8.894;2023-03-04T01:02:44;7.78;;;0.90;;
78443;SDS011;67739;52.986;8.894;2023-03-04T01:05:10;7.40;;;0.47;;
78443;SDS011;67739;52.986;8.894;2023-03-04T01:07:35;6.80;;;1.20;;
78443;SDS011;67739;52.986;8.894;2023-03-04T01:10:05;9.73;;;1.77;;
78443;SDS011;67739;52.986;8.894;2023-03-04T01:12:32;8.25;;;1.27;;
78443;SDS011;67739;52.986;8.894;2023-03-04T01:14:57;5.00;;;1.40;;
78443;SDS011;67739;52.986;8.894;2023-03-04T01:17:23;4.60;;;0.45;;
78443;SDS011;67739;52.986;8.894;2023-03-04T01:19:48;12.23;;;1.33;;
78443;SDS011;67739;52.986;8.894;2023-03-04T01:22:13;10.90;;;1.38;;
78443;SDS011;67739;52.986;8.894;2023-03-04T01:24:41;14.20;;;1.20;;
78443;SDS011;67739;52.986;8.894;2023-03-04T01:27:06;4.32;;;0.77;;
78443;SDS011;67739;52.986;8.894;2023-03-04T01:29:32;10.80;;;1.52;;
78443;SDS011;67739;52.986;8.894;2023-03-04T01:31:57;6.43;;;0.90;;
78443;SDS011;67739;52.986;8.894;2023-03-04T01:34:22;10.10;;;1.35;;
78443;SDS011;67739;52.986;8.894;2023-03-04T01:36:48;6.93;;;0.43;;
78443;SDS011;67739;52.986;8.894;2023-03-04T01:39:13;18.23;;;1.58;;
78443;SDS011;67739;52.986;8.894;2023-03-04T01:41:38;9.60;;;1.17;;
78443;SDS011;67739;52.986;8.894;2023-03-04T01:44:04;9.45;;;0.70;;
78443;SDS011;67739;52.986;8.894;2023-03-04T01:46:30;14.73;;;2.30;;
78443;SDS011;67739;52.986;8.894;2023-03-04T01:48:56;10.35;;;1.05;;
78443;SDS011;67739;52.986;8.894;2023-03-04T01:51:22;9.38;;;1.10;;
78443;SDS011;67739;52.986;8.894;2023-03-04T01:53:48;8.80;;;0.95;;
78443;SDS011;67739;52.986;8.894;2023-03-04T01:56:30;12.93;;;1.73;;
78443;SDS011;67739;52.986;8.894;2023-03-04T01:59:07;5.55;;;0.40;;
78443;SDS011;67739;52.986;8.894;2023-03-04T02:01:37;8.35;;;0.77;;
78443;SDS011;67739;52.986;8.894;2023-03-04T02:04:04;9.55;;;0.63;;
78443;SDS011;67739;52.986;8.894;2023-03-04T02:06:31;8.82;;;0.90;;
78443;SDS011;67739;52.986;8.894;2023-03-04T02:08:57;4.68;;;0.60;;
78443;SDS011;67739;52.986;8.894;2023-03-04T02:11:22;6.93;;;0.95;;
78443;SDS011;67739;52.986;8.894;2023-03-04T02:13:48;6.75;;;0.82;;
78443;SDS011;67739;52.986;8.894;2023-03-04T02:16:13;3.45;;;0.52;;
78443;SDS011;67739;52.986;8.894;2023-03-04T02:18:39;7.15;;;0.63;;
78443;SDS011;67739;52.986;8.894;2023-03-04T02:21:23;9.77;;;1.10;;
78443;SDS011;67739;52.986;8.894;2023-03-04T02:26:39;5.90;;;0.32;;
78443;SDS011;67739;52.986;8.894;2023-03-04T02:29:07;9.25;;;0.65;;
78443;SDS011;67739;52.986;8.894;2023-03-04T02:31:38;10.00;;;1.17;;
78443;SDS011;67739;52.986;8.894;2023-03-04T02:34:13;6.22;;;0.70;;
78443;SDS011;67739;52.986;8.894;2023-03-04T02:36:41;5.25;;;0.75;;
78443;SDS011;67739;52.986;8.894;2023-03-04T02:41:39;3.25;;;0.50;;
78443;SDS011;67739;52.986;8.894;2023-03-04T02:44:09;14.05;;;1.98;;
78443;SDS011;67739;52.986;8.894;2023-03-04T02:46:40;8.18;;;0.85;;
78443;SDS011;67739;52.986;8.894;2023-03-04T02:49:06;9.88;;;0.90;;
78443;SDS011;67739;52.986;8.894;2023-03-04T02:51:33;7.68;;;0.88;;
78443;SDS011;67739;52.986;8.894;2023-03-04T02:54:02;11.38;;;1.00;;
78443;SDS011;67739;52.986;8.894;2023-03-04T02:56:27;12.02;;;1.05;;
78443;SDS011;67739;52.986;8.894;2023-03-04T02:58:52;5.63;;;0.60;;
78443;SDS011;67739;52.986;8.894;2023-03-04T03:01:18;8.23;;;1.17;;
78443;SDS011;67739;52.986;8.894;2023-03-04T03:03:44;12.07;;;1.15;;
78443;SDS011;67739;52.986;8.894;2023-03-04T03:06:09;4.63;;;0.73;;
78443;SDS011;67739;52.986;8.894;2023-03-04T03:08:34;10.75;;;1.17;;
78443;SDS011;67739;52.986;8.894;2023-03-04T03:11:00;10.60;;;0.82;;
78443;SDS011;67739;52.986;8.894;2023-03-04T03:13:25;4.15;;;0.70;;
78443;SDS011;67739;52.986;8.894;2023-03-04T03:15:50;13.18;;;2.03;;
78443;SDS011;67739;52.986;8.894;2023-03-04T03:18:16;7.07;;;0.85;;
78443;SDS011;67739;52.986;8.894;2023-03-04T03:20:41;7.07;;;0.70;;
78443;SDS011;67739;52.986;8.894;2023-03-04T03:23:07;3.17;;;0.40;;
78443;SDS011;67739;52.986;8.894;2023-03-04T03:25:33;8.15;;;0.65;;
78443;SDS011;67739;52.986;8.894;2023-03-04T03:28:00;6.93;;;0.40;;
78443;SDS011;67739;52.986;8.894;2023-03-04T03:30:26;3.47;;;0.52;;
78443;SDS011;67739;52.986;8.894;2023-03-04T03:32:54;3.92;;;0.70;;
78443;SDS011;67739;52.986;8.894;2023-03-04T03:35:19;5.65;;;0.60;;
78443;SDS011;67739;52.986;8.894;2023-03-04T03:37:45;10.82;;;0.70;;
78443;SDS011;67739;52.986;8.894;2023-03-04T03:40:10;5.03;;;0.55;;
78443;SDS011;67739;52.986;8.894;2023-03-04T03:42:36;5.75;;;0.20;;
78443;SDS011;67739;52.986;8.894;2023-03-04T03:45:02;9.18;;;1.17;;
78443;SDS011;67739;52.986;8.894;2023-03-04T03:47:27;4.97;;;0.70;;
78443;SDS011;67739;52.986;8.894;2023-03-04T03:49:53;10.88;;;0.65;;
78443;SDS011;67739;52.986;8.894;2023-03-04T03:52:18;5.03;;;0.57;;
78443;SDS011;67739;52.986;8.894;2023-03-04T03:54:43;3.35;;;0.38;;
78443;SDS011;67739;52.986;8.894;2023-03-04T03:57:09;3.10;;;0.82;;
78443;SDS011;67739;52.986;8.894;2023-03-04T03:59:34;5.63;;;0.47;;
78443;SDS011;67739;52.986;8.894;2023-03-04T04:01:59;11.43;;;1.20;;
78443;SDS011;67739;52.986;8.894;2023-03-04T04:04:25;11.93;;;0.82;;
78443;SDS011;67739;52.986;8.894;2023-03-04T04:06:50;6.22;;;0.85;;
78443;SDS011;67739;52.986;8.894;2023-03-04T04:09:15;9.68;;;0.75;;
78443;SDS011;67739;52.986;8.894;2023-03-04T04:11:41;6.80;;;0.73;;
78443;SDS011;67739;52.986;8.894;2023-03-04T04:14:07;5.32;;;0.85;;
78443;SDS011;67739;52.986;8.894;2023-03-04T04:16:35;6.38;;;0.95;;
78443;SDS011;67739;52.986;8.894;2023-03-04T04:19:00;4.57;;;1.13;;
78443;SDS011;67739;52.986;8.894;2023-03-04T04:21:25;7.88;;;1.27;;
78443;SDS011;67739;52.986;8.894;2023-03-04T04:23:51;4.30;;;0.40;;
78443;SDS011;67739;52.986;8.894;2023-03-04T04:26:16;8.52;;;0.45;;
78443;SDS011;67739;52.986;8.894;2023-03-04T04:28:41;4.75;;;0.55;;
78443;SDS011;67739;52.986;8.894;2023-03-04T04:31:07;4.93;;;0.35;;
78443;SDS011;67739;52.986;8.894;2023-03-04T04:33:33;5.10;;;0.65;;
78443;SDS011;67739;52.986;8.894;2023-03-04T04:35:59;6.80;;;0.73;;
78443;SDS011;67739;52.986;8.894;2023-03-04T04:38:25;4.35;;;1.48;;
78443;SDS011;67739;52.986;8.894;2023-03-04T04:40:51;5.97;;;1.00;;
78443;SDS011;67739;52.986;8.894;2023-03-04T04:43:16;4.50;;;0.32;;
78443;SDS011;67739;52.986;8.894;2023-03-04T04:45:42;5.20;;;0.80;;
78443;SDS011;67739;52.986;8.894;2023-03-04T04:48:07;6.55;;;1.35;;
78443;SDS011;67739;52.986;8.894;2023-03-04T04:50:33;1.55;;;0.20;;
78443;SDS011;67739;52.986;8.894;2023-03-04T04:53:01;7.43;;;0.80;;
78443;SDS011;67739;52.986;8.894;2023-03-04T04:55:26;3.17;;;0.35;;
78443;SDS011;67739;52.986;8.894;2023-03-04T04:57:52;10.77;;;1.13;;
78443;SDS011;67739;52.986;8.894;2023-03-04T05:00:17;9.70;;;0.25;;
78443;SDS011;67739;52.986;8.894;2023-03-04T05:02:43;5.75;;;1.05;;
78443;SDS011;67739;52.986;8.894;2023-03-04T05:05:09;5.38;;;0.40;;
78443;SDS011;67739;52.986;8.894;2023-03-04T05:07:34;7.97;;;1.15;;
78443;SDS011;67739;52.986;8.894;2023-03-04T05:10:00;4.55;;;0.50;;
78443;SDS011;67739;52.986;8.894;2023-03-04T05:12:25;8.98;;;1.00;;
78443;SDS011;67739;52.986;8.894;2023-03-04T05:14:50;3.70;;;0.98;;
78443;SDS011;67739;52.986;8.894;2023-03-04T05:17:22;3.78;;;0.30;;
78443;SDS011;67739;52.986;8.894;2023-03-04T05:19:47;4.28;;;0.28;;
78443;SDS011;67739;52.986;8.894;2023-03-04T05:22:12;4.05;;;0.57;;
78443;SDS011;67739;52.986;8.894;2023-03-04T05:24:38;8.18;;;1.77;;
78443;SDS011;67739;52.986;8.894;2023-03-04T05:27:03;5.15;;;0.40;;
78443;SDS011;67739;52.986;8.894;2023-03-04T05:29:28;6.75;;;0.60;;
78443;SDS011;67739;52.986;8.894;2023-03-04T05:31:54;2.55;;;0.50;;
78443;SDS011;67739;52.986;8.894;2023-03-04T05:34:19;5.57;;;0.73;;
78443;SDS011;67739;52.986;8.894;2023-03-04T05:36:44;5.97;;;0.50;;
78443;SDS011;67739;52.986;8.894;2023-03-04T05:39:10;6.40;;;0.63;;
78443;SDS011;67739;52.986;8.894;2023-03-04T05:41:35;5.55;;;0.30;;
78443;SDS011;67739;52.986;8.894;2023-03-04T05:44:00;5.63;;;0.65;;
78443;SDS011;67739;52.986;8.894;2023-03-04T05:46:26;7.60;;;0.80;;
78443;SDS011;67739;52.986;8.894;2023-03-04T05:48:52;9.07;;;1.20;;
78443;SDS011;67739;52.986;8.894;2023-03-04T05:51:18;10.80;;;1.83;;
78443;SDS011;67739;52.986;8.894;2023-03-04T05:53:43;3.78;;;0.52;;
78443;SDS011;67739;52.986;8.894;2023-03-04T05:56:09;6.97;;;0.70;;
78443;SDS011;67739;52.986;8.894;2023-03-04T05:58:36;5.03;;;0.73;;
78443;SDS011;67739;52.986;8.894;2023-03-04T06:01:02;3.33;;;0.50;;
78443;SDS011;67739;52.986;8.894;2023-03-04T06:03:28;5.35;;;0.75;;
78443;SDS011;67739;52.986;8.894;2023-03-04T06:05:54;3.45;;;0.77;;
78443;SDS011;67739;52.986;8.894;2023-03-04T06:10:44;4.95;;;0.90;;
78443;SDS011;67739;52.986;8.894;2023-03-04T06:13:10;4.88;;;0.60;;
78443;SDS011;67739;52.986;8.894;2023-03-04T06:18:02;9.88;;;1.55;;
78443;SDS011;67739;52.986;8.894;2023-03-04T06:20:31;5.13;;;0.73;;
78443;SDS011;67739;52.986;8.894;2023-03-04T06:22:57;10.02;;;1.33;;
78443;SDS011;67739;52.986;8.894;2023-03-04T06:25:22;6.07;;;0.95;;
78443;SDS011;67739;52.986;8.894;2023-03-04T06:27:48;10.35;;;1.20;;
78443;SDS011;67739;52.986;8.894;2023-03-04T06:32:39;7.10;;;0.63;;
78443;SDS011;67739;52.986;8.894;2023-03-04T06:37:30;4.15;;;0.75;;
78443;SDS011;67739;52.986;8.894;2023-03-04T06:39:55;4.32;;;0.88;;
78443;SDS011;67739;52.986;8.894;2023-03-04T06:42:21;6.45;;;1.00;;
78443;SDS011;67739;52.986;8.894;2023-03-04T06:44:47;8.90;;;1.45;;
78443;SDS011;67739;52.986;8.894;2023-03-04T06:47:13;4.47;;;0.68;;
78443;SDS011;67739;52.986;8.894;2023-03-04T06:49:38;6.28;;;0.80;;
78443;SDS011;67739;52.986;8.894;2023-03-04T06:52:04;10.73;;;1.15;;
78443;SDS011;67739;52.986;8.894;2023-03-04T06:54:29;4.55;;;1.02;;
78443;SDS011;67739;52.986;8.894;2023-03-04T06:56:54;5.00;;;0.77;;
78443;SDS011;67739;52.986;8.894;2023-03-04T06:59:20;5.18;;;0.88;;
78443;SDS011;67739;52.986;8.894;2023-03-04T07:01:46;5.95;;;0.70;;
78443;SDS011;67739;52.986;8.894;2023-03-04T07:04:11;4.70;;;0.55;;
78443;SDS011;67739;52.986;8.894;2023-03-04T07:06:37;5.70;;;0.65;;
78443;SDS011;67739;52.986;8.894;2023-03-04T07:09:02;4.90;;;0.85;;
78443;SDS011;67739;52.986;8.894;2023-03-04T07:11:28;5.72;;;0.90;;
78443;SDS011;67739;52.986;8.894;2023-03-04T07:13:53;6.82;;;0.95;;
78443;SDS011;67739;52.986;8.894;2023-03-04T07:16:20;5.38;;;1.13;;
78443;SDS011;67739;52.986;8.894;2023-03-04T07:18:46;4.68;;;1.23;;
78443;SDS011;67739;52.986;8.894;2023-03-04T07:21:12;5.55;;;0.85;;
78443;SDS011;67739;52.986;8.894;2023-03-04T07:23:38;6.00;;;0.75;;
78443;SDS011;67739;52.986;8.894;2023-03-04T07:26:04;6.85;;;0.88;;
78443;SDS011;67739;52.986;8.894;2023-03-04T07:28:30;6.10;;;1.40;;
78443;SDS011;67739;52.986;8.894;2023-03-04T07:30:55;8.82;;;1.63;;
78443;SDS011;67739;52.986;8.894;2023-03-04T07:33:21;11.77;;;3.47;;
78443;SDS011;67739;52.986;8.894;2023-03-04T07:35:46;14.93;;;3.22;;
78443;SDS011;67739;52.986;8.894;2023-03-04T07:38:11;10.60;;;3.47;;
78443;SDS011;67739;52.986;8.894;2023-03-04T07:40:37;10.02;;;3.13;;
78443;SDS011;67739;52.986;8.894;2023-03-04T07:43:02;9.48;;;3.58;;
78443;SDS011;67739;52.986;8.894;2023-03-04T07:45:28;6.95;;;1.90;;
78443;SDS011;67739;52.986;8.894;2023-03-04T07:47:53;11.65;;;2.38;;
78443;SDS011;67739;52.986;8.894;2023-03-04T07:50:19;3.25;;;0.60;;
78443;SDS011;67739;52.986;8.894;2023-03-04T07:52:45;6.43;;;1.20;;
78443;SDS011;67739;52.986;8.894;2023-03-04T07:55:13;10.07;;;1.52;;
78443;SDS011;67739;52.986;8.894;2023-03-04T07:57:43;6.40;;;0.63;;
78443;SDS011;67739;52.986;8.894;2023-03-04T08:00:10;8.20;;;0.98;;
78443;SDS011;67739;52.986;8.894;2023-03-04T08:02:36;6.35;;;1.40;;
78443;SDS011;67739;52.986;8.894;2023-03-04T08:05:02;5.28;;;0.95;;
78443;SDS011;67739;52.986;8.894;2023-03-04T08:07:27;9.05;;;1.30;;
78443;SDS011;67739;52.986;8.894;2023-03-04T08:09:53;8.55;;;1.65;;
78443;SDS011;67739;52.986;8.894;2023-03-04T08:12:18;11.95;;;2.28;;
78443;SDS011;67739;52.986;8.894;2023-03-04T08:14:43;13.38;;;1.85;;
78443;SDS011;67739;52.986;8.894;2023-03-04T08:17:09;17.73;;;2.20;;
78443;SDS011;67739;52.986;8.894;2023-03-04T08:19:34;9.70;;;1.30;;
78443;SDS011;67739;52.986;8.894;2023-03-04T08:22:00;19.00;;;2.70;;
78443;SDS011;67739;52.986;8.894;2023-03-04T08:24:26;9.05;;;2.63;;
78443;SDS011;67739;52.986;8.894;2023-03-04T08:26:51;10.23;;;1.63;;
78443;SDS011;67739;52.986;8.894;2023-03-04T08:29:18;13.00;;;1.52;;
78443;SDS011;67739;52.986;8.894;2023-03-04T08:31:45;10.18;;;1.30;;
78443;SDS011;67739;52.986;8.894;2023-03-04T08:34:11;6.38;;;0.88;;
78443;SDS011;67739;52.986;8.894;2023-03-04T08:36:38;9.82;;;1.08;;
78443;SDS011;67739;52.986;8.894;2023-03-04T08:39:04;8.93;;;0.98;;
78443;SDS011;67739;52.986;8.894;2023-03-04T08:41:30;12.20;;;2.15;;
78443;SDS011;67739;52.986;8.894;2023-03-04T08:43:56;29.10;;;4.05;;
78443;SDS011;67739;52.986;8.894;2023-03-04T08:46:22;8.68;;;1.38;;
78443;SDS011;67739;52.986;8.894;2023-03-04T08:48:47;15.45;;;2.05;;
78443;SDS011;67739;52.986;8.894;2023-03-04T08:51:13;10.63;;;2.13;;
78443;SDS011;67739;52.986;8.894;2023-03-04T08:53:40;13.68;;;2.20;;
78443;SDS011;67739;52.986;8.894;2023-03-04T08:56:05;11.27;;;2.28;;
78443;SDS011;67739;52.986;8.894;2023-03-04T08:58:32;9.75;;;2.08;;
78443;SDS011;67739;52.986;8.894;2023-03-04T09:00:58;8.93;;;2.13;;
78443;SDS011;67739;52.986;8.894;2023-03-04T09:03:24;10.98;;;0.80;;
78443;SDS011;67739;52.986;8.894;2023-03-04T09:05:50;8.18;;;1.23;;
78443;SDS011;67739;52.986;8.894;2023-03-04T09:08:15;9.23;;;1.13;;
78443;SDS011;67739;52.986;8.894;2023-03-04T09:10:41;9.38;;;0.98;;
78443;SDS011;67739;52.986;8.894;2023-03-04T09:13:07;5.88;;;0.93;;
78443;SDS011;67739;52.986;8.894;2023-03-04T09:15:35;7.82;;;0.57;;
78443;SDS011;67739;52.986;8.894;2023-03-04T09:18:01;11.70;;;1.60;;
78443;SDS011;67739;52.986;8.894;2023-03-04T09:20:27;6.95;;;0.70;;
78443;SDS011;67739;52.986;8.894;2023-03-04T09:22:53;5.68;;;0.63;;
78443;SDS011;67739;52.986;8.894;2023-03-04T09:25:18;9.85;;;0.80;;
78443;SDS011;67739;52.986;8.894;2023-03-04T09:27:44;5.95;;;0.75;;
78443;SDS011;67739;52.986;8.894;2023-03-04T09:30:09;4.57;;;0.80;;
78443;SDS011;67739;52.986;8.894;2023-03-04T09:32:36;7.38;;;0.40;;
78443;SDS011;67739;52.986;8.894;2023-03-04T09:35:01;13.52;;;1.88;;
78443;SDS011;67739;52.986;8.894;2023-03-04T09:37:26;10.57;;;0.73;;
78443;SDS011;67739;52.986;8.894;2023-03-04T09:39:52;10.25;;;0.77;;
78443;SDS011;67739;52.986;8.894;2023-03-04T09:42:23;11.73;;;1.25;;
78443;SDS011;67739;52.986;8.894;2023-03-04T09:45:00;7.20;;;1.38;;
78443;SDS011;67739;52.986;8.894;2023-03-04T09:47:27;7.07;;;0.70;;
78443;SDS011;67739;52.986;8.894;2023-03-04T09:49:55;8.73;;;1.08;;
78443;SDS011;67739;52.986;8.894;2023-03-04T09:55:28;12.80;;;1.35;;
78443;SDS011;67739;52.986;8.894;2023-03-04T10:01:00;10.98;;;1.92;;
78443;SDS011;67739;52.986;8.894;2023-03-04T10:03:33;7.53;;;1.10;;
78443;SDS011;67739;52.986;8.894;2023-03-04T10:06:09;13.50;;;2.08;;
78443;SDS011;67739;52.986;8.894;2023-03-04T10:09:20;9.85;;;1.23;;
78443;SDS011;67739;52.986;8.894;2023-03-04T10:11:33;6.88;;;1.48;;
78443;SDS011;67739;52.986;8.894;2023-03-04T10:25:16;9.20;;;1.05;;
78443;SDS011;67739;52.986;8.894;2023-03-04T10:27:54;10.65;;;1.25;;
78443;SDS011;67739;52.986;8.894;2023-03-04T10:33:30;5.45;;;0.80;;
78443;SDS011;67739;52.986;8.894;2023-03-04T10:36:00;9.57;;;1.58;;
78443;SDS011;67739;52.986;8.894;2023-03-04T10:38:28;9.30;;;1.25;;
78443;SDS011;67739;52.986;8.894;2023-03-04T10:40:56;14.35;;;1.98;;
78443;SDS011;67739;52.986;8.894;2023-03-04T10:43:23;10.93;;;2.20;;
78443;SDS011;67739;52.986;8.894;2023-03-04T10:45:48;14.77;;;1.92;;
78443;SDS011;67739;52.986;8.894;2023-03-04T10:48:22;10.90;;;1.92;;
78443;SDS011;67739;52.986;8.894;2023-03-04T10:50:50;18.27;;;2.92;;
78443;SDS011;67739;52.986;8.894;2023-03-04T10:53:21;10.65;;;1.85;;
78443;SDS011;67739;52.986;8.894;2023-03-04T10:55:52;15.45;;;2.13;;
78443;SDS011;67739;52.986;8.894;2023-03-04T10:58:17;7.88;;;1.27;;
78443;SDS011;67739;52.986;8.894;2023-03-04T11:00:47;9.55;;;2.10;;
78443;SDS011;67739;52.986;8.894;2023-03-04T11:05:52;12.52;;;1.92;;
78443;SDS011;67739;52.986;8.894;2023-03-04T11:08:52;11.75;;;1.42;;
78443;SDS011;67739;52.986;8.894;2023-03-04T11:11:21;10.63;;;1.30;;
78443;SDS011;67739;52.986;8.894;2023-03-04T11:13:51;12.52;;;0.88;;
78443;SDS011;67739;52.986;8.894;2023-03-04T11:16:24;7.80;;;1.48;;
78443;SDS011;67739;52.986;8.894;2023-03-04T11:18:53;9.88;;;1.73;;
78443;SDS011;67739;52.986;8.894;2023-03-04T11:21:22;10.50;;;1.58;;
78443;SDS011;67739;52.986;8.894;2023-03-04T11:23:58;12.68;;;2.30;;
78443;SDS011;67739;52.986;8.894;2023-03-04T11:26:28;8.35;;;1.35;;
78443;SDS011;67739;52.986;8.894;2023-03-04T11:29:06;13.93;;;1.70;;
78443;SDS011;67739;52.986;8.894;2023-03-04T11:32:26;16.48;;;2.08;;
78443;SDS011;67739;52.986;8.894;2023-03-04T11:37:21;8.63;;;1.50;;
78443;SDS011;67739;52.986;8.894;2023-03-04T11:42:24;21.00;;;1.98;;
78443;SDS011;67739;52.986;8.894;2023-03-04T11:45:27;12.13;;;2.88;;
78443;SDS011;67739;52.986;8.894;2023-03-04T11:48:07;10.68;;;1.05;;
78443;SDS011;67739;52.986;8.894;2023-03-04T11:50:51;9.35;;;2.15;;
78443;SDS011;67739;52.986;8.894;2023-03-04T11:53:32;8.68;;;1.35;;
78443;SDS011;67739;52.986;8.894;2023-03-04T11:56:23;7.13;;;1.10;;
78443;SDS011;67739;52.986;8.894;2023-03-04T12:07:17;12.82;;;2.45;;
78443;SDS011;67739;52.986;8.894;2023-03-04T12:09:56;12.05;;;1.40;;
78443;SDS011;67739;52.986;8.894;2023-03-04T12:12:34;11.02;;;1.33;;
78443;SDS011;67739;52.986;8.894;2023-03-04T12:15:21;6.72;;;0.98;;
78443;SDS011;67739;52.986;8.894;2023-03-04T12:18:11;10.43;;;1.67;;
78443;SDS011;67739;52.986;8.894;2023-03-04T12:31:44;14.65;;;3.50;;
78443;SDS011;67739;52.986;8.894;2023-03-04T12:48:36;8.90;;;1.27;;
78443;SDS011;67739;52.986;8.894;2023-03-04T12:56:18;10.73;;;1.73;;
78443;SDS011;67739;52.986;8.894;2023-03-04T12:58:48;9.00;;;0.93;;
78443;SDS011;67739;52.986;8.894;2023-03-04T13:01:17;10.80;;;1.13;;
78443;SDS011;67739;52.986;8.894;2023-03-04T13:06:38;11.07;;;2.03;;
78443;SDS011;67739;52.986;8.894;2023-03-04T13:12:22;8.52;;;1.50;;
78443;SDS011;67739;52.986;8.894;2023-03-04T13:15:32;12.10;;;2.28;;
78443;SDS011;67739;52.986;8.894;2023-03-04T13:17:41;12.73;;;1.27;;
78443;SDS011;67739;52.986;8.894;2023-03-04T13:23:01;17.90;;;1.98;;
78443;SDS011;67739;52.986;8.894;2023-03-04T13:25:39;20.05;;;3.38;;
78443;SDS011;67739;52.986;8.894;2023-03-04T13:43:55;10.02;;;1.10;;
78443;SDS011;67739;52.986;8.894;2023-03-04T13:51:13;9.95;;;2.40;;
78443;SDS011;67739;52.986;8.894;2023-03-04T13:54:28;9.98;;;1.52;;
78443;SDS011;67739;52.986;8.894;2023-03-04T13:59:49;9.27;;;1.08;;
78443;SDS011;67739;52.986;8.894;2023-03-04T14:02:20;8.15;;;1.27;;
78443;SDS011;67739;52.986;8.894;2023-03-04T14:07:23;34.75;;;10.55;;
78443;SDS011;67739;52.986;8.894;2023-03-04T14:10:00;65.63;;;30.92;;
78443;SDS011;67739;52.986;8.894;2023-03-04T14:12:56;14.13;;;2.40;;
78443;SDS011;67739;52.986;8.894;2023-03-04T14:15:29;12.68;;;3.60;;
78443;SDS011;67739;52.986;8.894;2023-03-04T14:18:00;14.13;;;2.53;;
78443;SDS011;67739;52.986;8.894;2023-03-04T14:20:31;11.57;;;1.77;;
78443;SDS011;67739;52.986;8.894;2023-03-04T14:22:58;16.65;;;3.03;;
78443;SDS011;67739;52.986;8.894;2023-03-04T14:28:01;11.82;;;1.90;;
78443;SDS011;67739;52.986;8.894;2023-03-04T14:30:27;7.47;;;1.77;;
78443;SDS011;67739;52.986;8.894;2023-03-04T14:32:53;10.05;;;1.20;;
78443;SDS011;67739;52.986;8.894;2023-03-04T14:35:31;10.40;;;1.15;;
78443;SDS011;67739;52.986;8.894;2023-03-04T14:40:33;8.80;;;1.55;;
78443;SDS011;67739;52.986;8.894;2023-03-04T14:43:05;14.13;;;1.98;;
78443;SDS011;67739;52.986;8.894;2023-03-04T14:45:38;12.40;;;1.73;;
78443;SDS011;67739;52.986;8.894;2023-03-04T14:48:06;8.77;;;1.15;;
78443;SDS011;67739;52.986;8.894;2023-03-04T14:50:32;8.70;;;2.33;;
78443;SDS011;67739;52.986;8.894;2023-03-04T14:55:32;10.43;;;2.58;;
78443;SDS011;67739;52.986;8.894;2023-03-04T14:58:07;15.43;;;6.57;;
78443;SDS011;67739;52.986;8.894;2023-03-04T15:00:43;16.70;;;6.30;;
78443;SDS011;67739;52.986;8.894;2023-03-04T15:03:19;10.68;;;2.70;;
78443;SDS011;67739;52.986;8.894;2023-03-04T15:05:48;8.27;;;1.40;;
78443;SDS011;67739;52.986;8.894;2023-03-04T15:08:19;13.63;;;3.17;;
78443;SDS011;67739;52.986;8.894;2023-03-04T15:10:55;16.52;;;6.22;;
78443;SDS011;67739;52.986;8.894;2023-03-04T15:13:36;14.68;;;6.22;;
78443;SDS011;67739;52.986;8.894;2023-03-04T15:16:02;18.52;;;9.05;;
78443;SDS011;67739;52.986;8.894;2023-03-04T15:18:28;61.67;;;30.15;;
78443;SDS011;67739;52.986;8.894;2023-03-04T15:21:04;34.05;;;11.77;;
78443;SDS011;67739;52.986;8.894;2023-03-04T15:23:50;88.43;;;40.47;;
78443;SDS011;67739;52.986;8.894;2023-03-04T15:26:15;77.00;;;38.58;;
78443;SDS011;67739;52.986;8.894;2023-03-04T15:28:40;23.65;;;10.48;;
78443;SDS011;67739;52.986;8.894;2023-03-04T15:31:14;31.05;;;15.82;;
78443;SDS011;67739;52.986;8.894;2023-03-04T15:33:40;24.92;;;10.80;;
78443;SDS011;67739;52.986;8.894;2023-03-04T15:36:05;26.58;;;10.45;;
78443;SDS011;67739;52.986;8.894;2023-03-04T15:38:36;20.25;;;6.57;;
78443;SDS011;67739;52.986;8.894;2023-03-04T15:41:04;29.40;;;16.05;;
78443;SDS011;67739;52.986;8.894;2023-03-04T15:43:30;13.55;;;5.40;;
78443;SDS011;67739;52.986;8.894;2023-03-04T15:45:55;18.08;;;8.73;;
78443;SDS011;67739;52.986;8.894;2023-03-04T15:48:20;13.18;;;3.92;;
78443;SDS011;67739;52.986;8.894;2023-03-04T15:50:51;9.45;;;3.40;;
78443;SDS011;67739;52.986;8.894;2023-03-04T15:54:06;5.88;;;1.77;;
78443;SDS011;67739;52.986;8.894;2023-03-04T15:56:16;11.98;;;1.70;;
78443;SDS011;67739;52.986;8.894;2023-03-04T15:59:18;6.82;;;0.90;;
78443;SDS011;67739;52.986;8.894;2023-03-04T16:01:38;5.18;;;0.43;;
78443;SDS011;67739;52.986;8.894;2023-03-04T16:04:04;12.35;;;2.35;;
78443;SDS011;67739;52.986;8.894;2023-03-04T16:06:30;7.18;;;1.23;;
78443;SDS011;67739;52.986;8.894;2023-03-04T16:08:56;6.18;;;0.90;;
78443;SDS011;67739;52.986;8.894;2023-03-04T16:11:23;5.40;;;0.80;;
78443;SDS011;67739;52.986;8.894;2023-03-04T16:13:51;9.02;;;1.58;;
78443;SDS011;67739;52.986;8.894;2023-03-04T16:16:16;7.15;;;1.63;;
78443;SDS011;67739;52.986;8.894;2023-03-04T16:18:42;4.28;;;0.60;;
78443;SDS011;67739;52.986;8.894;2023-03-04T16:21:10;6.78;;;1.27;;
78443;SDS011;67739;52.986;8.894;2023-03-04T16:23:41;12.57;;;2.20;;
78443;SDS011;67739;52.986;8.894;2023-03-04T16:26:13;10.32;;;1.70;;
78443;SDS011;67739;52.986;8.894;2023-03-04T16:28:41;5.53;;;0.75;;
78443;SDS011;67739;52.986;8.894;2023-03-04T16:31:06;9.52;;;3.70;;
78443;SDS011;67739;52.986;8.894;2023-03-04T16:33:34;10.82;;;2.85;;
78443;SDS011;67739;52.986;8.894;2023-03-04T16:35:59;13.90;;;4.55;;
78443;SDS011;67739;52.986;8.894;2023-03-04T16:38:28;17.13;;;7.15;;
78443;SDS011;67739;52.986;8.894;2023-03-04T16:40:56;14.75;;;7.40;;
78443;SDS011;67739;52.986;8.894;2023-03-04T16:43:25;12.93;;;3.85;;
78443;SDS011;67739;52.986;8.894;2023-03-04T16:45:51;13.57;;;3.45;;
78443;SDS011;67739;52.986;8.894;2023-03-04T16:48:16;10.60;;;2.80;;
78443;SDS011;67739;52.986;8.894;2023-03-04T16:50:44;11.32;;;3.40;;
78443;SDS011;67739;52.986;8.894;2023-03-04T16:53:24;13.25;;;2.90;;